Time;durP1;ratioP1;P1;durP2;ratioP2;P2;SDS_P1;SDS_P2;PMS_P1;PMS_P2;Temp;Humidity;BMP_temperature;BMP_pressure;BME280_temperature;BME280_humidity;BME280_pressure;Samples;Min_cycle;Max_cycle;Signal;HPM_P1;HPM_P2
2021/05/06 00:29:41;;;;;;;1.80;1.53;;;14.40;88.20;;;15.30;41.76;100481.22;4888798;28;99030;-53
2021/05/06 00:33:36;;;;;;;3.10;1.90;;;14.40;87.80;;;15.22;42.18;100457.78;4890396;28;98826;-57
2021/05/06 00:36:02;;;;;;;3.27;2.43;;;14.40;87.70;;;15.25;41.98;100456.72;4886718;28;98880;-57
2021/05/06 00:38:32;;;;;;;2.57;1.90;;;14.50;86.90;;;15.31;42.20;100440.41;4872388;28;98090;-61
2021/05/06 00:59:44;;;;;;;1.93;1.50;;;14.20;87.30;;;15.22;42.61;100440.97;4883764;28;97684;-56
2021/05/06 01:10:17;;;;;;;2.03;1.47;;;14.30;87.40;;;15.23;42.28;100422.28;4891890;28;101065;-55
2021/05/06 01:12:46;;;;;;;1.77;1.20;;;14.50;85.60;;;15.35;42.04;100418.91;4886315;28;102312;-57
2021/05/06 01:15:12;;;;;;;1.67;1.30;;;14.80;84.30;;;15.50;41.99;100422.47;4898063;28;97652;-57
2021/05/06 01:17:38;;;;;;;2.90;1.70;;;15.10;82.10;;;15.59;41.76;100424.59;4857067;28;98540;-55
2021/05/06 01:20:06;;;;;;;3.90;3.37;;;15.20;82.60;;;15.70;41.53;100416.81;4880778;28;99127;-57
2021/05/06 01:22:33;;;;;;;1.87;1.20;;;15.40;80.80;;;15.73;41.18;100419.28;4854663;28;98093;-56
2021/05/06 01:24:59;;;;;;;2.90;2.50;;;15.40;81.60;;;15.82;41.24;100414.38;4880974;28;97826;-57
2021/05/06 01:30:22;;;;;;;3.53;1.63;;;15.40;81.60;;;15.86;41.07;100413.22;4878797;28;101240;-57
2021/05/06 01:35:24;;;;;;;2.50;1.70;;;15.50;80.40;;;15.86;40.87;100410.56;4898000;28;97300;-55
2021/05/06 01:40:58;;;;;;;1.60;1.23;;;15.40;80.20;;;15.90;41.16;100412.06;4876306;28;98773;-57
2021/05/06 01:46:00;;;;;;;2.13;1.30;;;15.60;80.50;;;16.01;40.94;100409.63;4892824;28;97993;-56
2021/05/06 01:59:56;;;;;;;1.33;1.17;;;16.20;77.60;;;16.38;39.96;100404.66;4908091;28;97241;-56
2021/05/06 02:02:00;;;;;;;3.10;1.33;;;16.30;77.20;;;16.40;39.73;100394.78;4880566;28;99747;-55
2021/05/06 02:04:26;;;;;;;1.67;1.20;;;16.30;76.20;;;16.42;39.79;100393.72;4897468;28;98017;-57
2021/05/06 02:06:51;;;;;;;2.73;2.27;;;16.30;78.00;;;16.43;39.78;100389.25;4907184;28;101862;-57
2021/05/06 02:09:17;;;;;;;2.67;1.83;;;16.30;76.30;;;16.40;40.01;100390.28;4924846;28;97929;-55
2021/05/06 02:11:43;;;;;;;2.53;1.83;;;16.20;76.30;;;16.33;40.28;100388.97;4905091;28;98876;-55
2021/05/06 02:14:10;;;;;;;1.40;1.23;;;16.10;78.10;;;16.26;40.32;100380.53;4885731;28;101878;-56
2021/05/06 02:16:38;;;;;;;1.73;1.33;;;15.90;79.40;;;16.17;40.54;100388.22;4883488;28;96842;-56
2021/05/06 02:19:06;;;;;;;1.20;1.10;;;15.70;79.50;;;16.15;40.37;100392.78;4914217;28;97642;-56
2021/05/06 02:21:32;;;;;;;1.83;1.23;;;15.80;78.70;;;16.09;40.52;100386.06;4894761;28;98447;-55
2021/05/06 02:23:58;;;;;;;1.70;1.43;;;15.60;80.10;;;16.08;40.45;100389.69;4879807;28;97193;-55
2021/05/06 02:26:25;;;;;;;2.03;1.23;;;15.70;79.30;;;16.07;40.73;100387.97;4917786;28;97493;-57
2021/05/06 02:28:51;;;;;;;2.30;2.10;;;15.60;80.40;;;15.96;40.64;100382.47;4872925;28;99668;-57
2021/05/06 02:31:17;;;;;;;2.27;2.00;;;15.40;80.70;;;15.91;40.89;100381.88;4906906;28;98256;-57
2021/05/06 02:33:44;;;;;;;3.87;1.90;;;15.20;82.30;;;15.81;41.28;100383.41;4909788;28;98535;-57
2021/05/06 02:36:11;;;;;;;4.23;3.50;;;15.00;82.60;;;15.72;41.31;100375.03;4897913;28;97182;-57
2021/05/06 02:38:38;;;;;;;5.33;4.83;;;14.90;85.00;;;15.64;41.43;100379.97;4890404;28;99594;-57
2021/05/06 02:41:04;;;;;;;4.40;2.90;;;14.80;84.00;;;15.54;41.84;100377.94;4918012;28;97976;-56
2021/05/06 02:43:30;;;;;;;3.77;2.67;;;14.60;85.40;;;15.49;41.93;100370.25;4885984;28;97772;-56
2021/05/06 02:45:56;;;;;;;6.40;4.17;;;14.60;85.50;;;15.38;41.90;100375.34;4898685;28;99531;-57
2021/05/06 02:48:22;;;;;;;2.83;1.70;;;14.40;85.40;;;15.37;42.24;100381.63;4905362;28;96938;-56
2021/05/06 02:50:54;;;;;;;4.40;2.97;;;14.50;86.10;;;15.16;42.14;100379.25;4893232;28;97052;-55
2021/05/06 02:53:24;;;;;;;3.50;2.27;;;14.40;85.00;;;15.05;43.04;100375.56;4904056;28;96889;-54
2021/05/06 02:58:21;;;;;;;4.73;2.03;;;14.20;87.60;;;14.87;43.34;100377.44;4913643;28;97326;-57
2021/05/06 03:03:41;;;;;;;7.27;3.10;;;13.70;87.30;;;14.37;44.05;100367.88;4900433;28;97572;-57
2021/05/06 03:06:07;;;;;;;4.80;2.30;;;13.50;87.60;;;14.44;44.20;100363.97;4895524;28;98125;-56
2021/05/06 03:08:39;;;;;;;3.40;1.57;;;13.50;89.30;;;14.39;44.36;100360.69;4903060;28;101048;-61
2021/05/06 03:24:32;;;;;;;3.37;2.47;;;13.40;87.90;;;14.18;44.87;100346.84;4916575;28;98511;-57
2021/05/06 03:27:01;;;;;;;9.37;2.60;;;13.40;89.00;;;14.25;44.29;100352.66;4893204;28;97042;-57
2021/05/06 03:29:38;;;;;;;4.77;2.43;;;13.40;88.50;;;14.29;44.76;100348.88;4872887;28;99902;-57
2021/05/06 04:16:09;;;;;;;4.50;1.80;;;13.20;90.40;;;14.12;45.24;100338.34;4899837;28;97293;-61
2021/05/06 04:18:24;;;;;;;5.00;2.40;;;13.10;90.70;;;14.17;45.09;100344.25;4893731;28;97890;-55
2021/05/06 04:37:26;;;;;;;3.57;1.10;;;13.70;88.20;;;14.58;44.26;100353.44;4909194;28;99585;-55
2021/05/06 04:45:22;;;;;;;3.23;1.40;;;13.90;88.30;;;14.63;44.07;100358.50;4907172;28;102145;-55
2021/05/06 04:53:34;;;;;;;5.27;2.10;;;13.80;87.40;;;14.68;44.19;100355.56;4909808;28;96919;-54
2021/05/06 05:06:26;;;;;;;2.50;1.13;;;13.60;89.70;;;14.66;44.11;100360.13;4911891;28;97850;-57
2021/05/06 05:26:49;;;;;;;4.73;2.30;;;13.90;88.60;;;14.75;43.65;100362.22;4903803;28;97395;-55
2021/05/06 05:29:14;;;;;;;4.87;2.70;;;13.90;89.10;;;14.80;43.71;100355.72;4899600;28;96782;-57
2021/05/06 05:31:40;;;;;;;5.77;2.73;;;14.00;87.90;;;14.82;43.79;100361.78;4894346;28;103250;-57
2021/05/06 05:34:24;;;;;;;5.93;3.27;;;14.00;88.30;;;14.83;43.68;100354.69;4913260;28;97530;-57
2021/05/06 05:36:53;;;;;;;6.90;2.40;;;14.00;88.10;;;14.76;43.31;100353.34;4890667;28;100189;-55
2021/05/06 05:39:36;;;;;;;7.70;2.90;;;14.00;86.90;;;14.79;43.26;100358.47;4898638;28;96996;-56
2021/05/06 05:55:06;;;;;;;4.37;2.00;;;14.30;86.20;;;14.93;43.41;100371.81;4911960;28;96936;-57
2021/05/06 05:57:32;;;;;;;6.23;2.90;;;14.50;85.60;;;14.97;43.58;100356.53;4911843;28;98190;-57
2021/05/06 05:59:58;;;;;;;4.40;2.73;;;14.50;85.70;;;15.03;43.33;100367.66;4897936;28;103598;-57
2021/05/06 06:02:24;;;;;;;3.67;1.90;;;14.60;84.60;;;15.02;43.46;100368.59;4892664;28;98287;-56
2021/05/06 06:04:50;;;;;;;4.07;1.90;;;14.50;86.00;;;14.94;43.62;100364.69;4909273;28;97183;-58
2021/05/06 06:07:16;;;;;;;7.63;3.90;;;14.30;86.50;;;14.97;42.46;100367.16;4915603;28;97623;-58
2021/05/06 06:09:42;;;;;;;5.97;3.80;;;14.50;84.30;;;15.09;42.90;100364.66;4909314;28;98385;-57
2021/05/06 06:12:08;;;;;;;5.50;3.20;;;14.70;83.60;;;15.29;42.57;100367.91;4898275;28;98126;-56
2021/05/06 06:15:22;;;;;;;5.67;4.00;;;15.00;82.30;;;15.26;42.24;100362.78;4891498;28;98653;-61
2021/05/06 06:17:23;;;;;;;6.87;4.13;;;14.90;83.10;;;15.17;42.08;100370.34;4896524;28;100380;-55
2021/05/06 06:19:50;;;;;;;5.50;3.70;;;14.90;81.50;;;15.34;42.32;100365.84;4895661;28;97482;-57
2021/05/06 06:22:19;;;;;;;5.17;4.40;;;15.00;81.90;;;15.17;41.85;100370.34;4889422;28;96987;-56
2021/05/06 06:24:46;;;;;;;5.87;3.73;;;14.80;82.40;;;15.18;42.72;100366.75;4877428;28;97012;-55
2021/05/06 06:27:13;;;;;;;5.93;4.10;;;14.70;84.40;;;14.97;42.20;100360.06;4903694;28;99258;-55
2021/05/06 06:29:39;;;;;;;5.87;4.23;;;14.50;82.40;;;14.96;43.09;100366.31;4894064;28;97952;-56
2021/05/06 06:32:08;;;;;;;9.17;5.00;;;14.50;83.80;;;14.90;43.22;100356.06;4885729;28;97313;-57
2021/05/06 06:34:34;;;;;;;6.97;4.87;;;14.40;84.30;;;14.76;43.96;100369.28;4891457;28;97551;-58
2021/05/06 06:37:00;;;;;;;8.13;5.40;;;14.20;86.20;;;14.68;43.62;100366.19;4915698;28;97947;-56
2021/05/06 06:39:27;;;;;;;6.27;4.90;;;14.20;84.50;;;14.85;43.29;100369.56;4895457;28;102370;-55
2021/05/06 06:41:55;;;;;;;8.57;5.60;;;14.50;84.70;;;14.95;43.29;100369.91;4909997;28;97237;-55
2021/05/06 06:44:25;;;;;;;7.70;4.63;;;14.70;84.40;;;14.99;43.14;100363.47;4911660;28;96785;-57
2021/05/06 06:47:00;;;;;;;6.73;4.60;;;14.80;83.80;;;15.10;42.98;100363.69;4888739;28;97800;-56
2021/05/06 06:49:32;;;;;;;8.00;4.90;;;14.90;83.70;;;15.14;42.35;100365.22;4892238;28;97276;-56
2021/05/06 06:51:59;;;;;;;5.93;4.30;;;15.00;82.00;;;15.12;42.70;100361.81;4913719;28;96978;-57
2021/05/06 06:54:26;;;;;;;5.87;4.70;;;15.00;81.30;;;15.18;42.61;100353.44;4905996;28;97400;-55
2021/05/06 06:56:52;;;;;;;6.20;5.57;;;15.00;82.30;;;14.89;42.86;100360.47;4891395;28;100185;-57
2021/05/06 06:59:18;;;;;;;4.03;3.10;;;14.70;82.30;;;15.07;43.12;100353.25;4892290;28;98161;-56
2021/05/06 07:01:44;;;;;;;6.80;5.33;;;14.80;83.40;;;15.09;42.87;100356.69;4891364;28;97001;-57
2021/05/06 07:04:11;;;;;;;7.10;5.47;;;14.90;82.20;;;15.09;42.68;100369.97;4911605;28;97200;-59
2021/05/06 07:06:38;;;;;;;7.53;5.57;;;14.90;81.60;;;15.04;41.94;100356.06;4892657;28;99671;-59
2021/05/06 07:09:08;;;;;;;5.33;4.27;;;14.90;80.60;;;15.14;42.85;100357.25;4912370;28;96823;-58
2021/05/06 07:11:34;;;;;;;6.37;5.77;;;14.90;82.60;;;15.11;42.42;100359.25;4905635;28;101089;-57
2021/05/06 07:13:59;;;;;;;3.57;3.27;;;14.90;81.60;;;15.28;42.03;100361.75;4894927;28;103282;-59
2021/05/06 07:16:25;;;;;;;6.87;4.77;;;15.10;81.10;;;15.25;42.41;100366.41;4910562;28;97647;-55
2021/05/06 07:18:51;;;;;;;7.83;5.20;;;15.10;81.20;;;15.41;42.11;100356.56;4904723;28;99806;-57
2021/05/06 07:21:17;;;;;;;6.10;4.47;;;15.30;80.60;;;15.34;41.98;100360.53;4892901;28;97413;-57
2021/05/06 07:23:43;;;;;;;7.40;5.47;;;15.10;81.10;;;15.30;41.90;100359.84;4900269;28;97477;-55
2021/05/06 07:26:09;;;;;;;6.93;5.60;;;15.20;80.40;;;15.04;42.38;100353.41;4891207;28;105595;-56
2021/05/06 07:28:38;;;;;;;7.43;5.27;;;14.80;80.40;;;15.19;42.56;100357.00;4901387;28;97696;-56
2021/05/06 07:31:12;;;;;;;6.00;5.13;;;14.90;83.20;;;15.09;41.93;100354.03;4906469;28;97302;-57
2021/05/06 07:33:39;;;;;;;7.10;4.70;;;15.00;80.70;;;15.07;42.82;100357.72;4898548;28;97248;-56
2021/05/06 07:36:07;;;;;;;6.87;5.70;;;14.80;82.30;;;15.03;42.93;100350.84;4876586;28;99433;-56
2021/05/06 07:38:32;;;;;;;5.73;4.57;;;14.70;82.80;;;15.02;41.63;100344.69;4878390;28;98522;-54
2021/05/06 07:41:00;;;;;;;6.10;4.33;;;14.70;80.80;;;15.22;42.50;100350.63;4896116;28;96959;-61
2021/05/06 07:43:30;;;;;;;4.90;4.07;;;14.90;82.00;;;14.93;43.03;100347.91;4896324;28;97285;-57
2021/05/06 07:45:58;;;;;;;4.50;3.63;;;14.60;83.00;;;14.82;42.45;100350.31;4896102;28;98192;-57
2021/05/06 07:48:24;;;;;;;3.33;3.03;;;14.50;82.50;;;14.71;43.22;100342.09;4911613;28;101294;-57
2021/05/06 07:50:51;;;;;;;4.93;4.20;;;14.40;83.00;;;14.69;42.63;100341.34;4892379;28;97805;-58
2021/05/06 07:53:23;;;;;;;4.33;3.50;;;14.40;82.70;;;14.48;42.96;100333.69;4873505;28;102842;-57
2021/05/06 07:55:49;;;;;;;4.93;3.10;;;14.20;82.10;;;14.73;43.73;100337.56;4906395;28;100097;-56
2021/05/06 07:58:15;;;;;;;6.47;3.67;;;14.40;84.30;;;14.74;42.81;100339.28;4891514;28;97047;-56
2021/05/06 08:00:42;;;;;;;4.53;4.13;;;14.50;81.60;;;14.47;42.40;100331.97;4898589;28;97217;-56
2021/05/06 08:03:08;;;;;;;4.77;3.67;;;14.20;81.30;;;14.61;42.81;100332.94;4882858;28;102930;-59
2021/05/06 08:05:36;;;;;;;5.43;3.70;;;14.30;83.70;;;14.78;42.62;100330.22;4912624;28;99042;-57
2021/05/06 08:08:04;;;;;;;6.37;4.13;;;14.60;81.30;;;14.58;41.45;100336.66;4889160;28;98216;-59
2021/05/06 08:10:30;;;;;;;5.17;3.90;;;14.40;80.30;;;14.64;43.89;100332.81;4920318;28;97661;-58
2021/05/06 08:12:58;;;;;;;6.57;4.27;;;14.30;84.70;;;14.61;42.80;100332.94;4877247;28;103007;-56
2021/05/06 08:15:25;;;;;;;5.93;3.70;;;14.30;81.80;;;14.77;43.57;100334.66;4909570;28;101124;-56
2021/05/06 08:17:51;;;;;;;8.10;3.87;;;14.50;83.70;;;14.83;42.36;100336.09;4910515;28;98535;-57
2021/05/06 08:20:18;;;;;;;4.53;3.90;;;14.60;81.70;;;14.75;42.60;100340.97;4895477;28;97075;-57
2021/05/06 08:22:45;;;;;;;4.60;3.70;;;14.40;82.70;;;14.79;43.13;100331.91;4893597;28;96988;-56
2021/05/06 08:25:14;;;;;;;5.60;3.30;;;14.40;82.10;;;14.99;43.16;100328.94;4893915;28;97339;-57
2021/05/06 08:27:41;;;;;;;5.13;2.63;;;14.60;83.50;;;14.98;43.08;100337.00;4895990;28;99574;-55
2021/05/06 08:30:11;;;;;;;5.13;3.30;;;14.70;83.70;;;14.95;41.30;100338.03;4905947;28;97654;-53
2021/05/06 08:32:37;;;;;;;6.90;3.50;;;14.80;80.00;;;14.91;43.01;100336.53;4901856;28;97479;-58
2021/05/06 08:35:05;;;;;;;3.70;3.13;;;14.60;82.70;;;14.73;42.58;100334.91;4873350;28;101933;-57
2021/05/06 08:37:31;;;;;;;6.27;2.60;;;14.40;82.70;;;14.62;43.94;100329.38;4905738;28;100387;-57
2021/05/06 08:39:56;;;;;;;4.67;3.30;;;14.20;85.10;;;14.47;43.08;100326.66;4906394;28;97025;-59
2021/05/06 08:42:23;;;;;;;4.43;3.10;;;14.10;83.20;;;14.41;43.68;100321.66;4891215;28;97027;-58
2021/05/06 08:44:49;;;;;;;6.17;3.43;;;14.00;84.80;;;14.36;43.40;100323.72;4895106;28;100281;-58
2021/05/06 08:47:22;;;;;;;5.60;3.13;;;13.90;84.50;;;14.45;42.22;100323.22;4879239;28;99737;-58
2021/05/06 08:49:50;;;;;;;6.23;3.23;;;14.10;83.10;;;14.39;43.33;100318.25;4887268;28;103877;-56
2021/05/06 08:52:21;;;;;;;5.70;3.70;;;14.00;83.30;;;14.45;43.81;100315.25;4912409;28;97057;-56
2021/05/06 08:54:53;;;;;;;6.43;3.40;;;14.10;84.00;;;14.53;43.60;100321.00;4880810;28;102015;-58
2021/05/06 08:57:21;;;;;;;6.67;3.10;;;14.20;84.40;;;14.50;42.89;100307.06;4889113;28;97297;-56
2021/05/06 08:59:48;;;;;;;4.27;2.87;;;14.20;83.10;;;14.27;42.22;100314.47;4891619;28;96874;-57
2021/05/06 09:02:15;;;;;;;4.10;2.80;;;14.00;81.60;;;14.22;42.15;100313.03;4910175;28;102225;-56
2021/05/06 09:04:41;;;;;;;4.43;3.03;;;13.90;82.30;;;14.13;43.57;100310.88;4893730;28;99041;-57
2021/05/06 09:07:09;;;;;;;3.87;2.80;;;13.70;82.60;;;14.13;42.47;100301.13;4890137;28;96949;-57
2021/05/06 09:09:36;;;;;;;6.03;3.10;;;13.70;82.30;;;14.05;43.46;100292.75;4889758;28;98137;-56
2021/05/06 09:12:07;;;;;;;4.17;3.10;;;13.70;82.60;;;14.02;42.82;100286.75;4891172;28;97363;-57
2021/05/06 09:14:45;;;;;;;4.87;2.60;;;13.70;83.10;;;14.04;44.68;100284.91;4881739;28;99830;-57
2021/05/06 09:17:24;;;;;;;4.33;2.70;;;13.60;85.10;;;14.18;43.79;100293.78;4892437;28;97136;-57
2021/05/06 09:20:05;;;;;;;6.13;3.13;;;13.80;84.70;;;14.33;43.98;100297.38;4892810;28;98279;-57
2021/05/06 09:22:46;;;;;;;3.70;2.67;;;14.00;84.00;;;14.55;43.86;100297.88;4888742;28;97158;-57
2021/05/06 09:25:33;;;;;;;5.70;2.47;;;14.10;84.60;;;14.69;42.31;100299.72;4905886;28;99142;-57
2021/05/06 09:28:14;;;;;;;5.10;2.50;;;14.40;82.60;;;14.83;41.63;100296.28;4891875;28;99258;-61
2021/05/06 09:31:06;;;;;;;6.43;2.20;;;14.50;79.80;;;15.14;42.61;100285.53;4892018;28;96927;-57
2021/05/06 09:33:33;;;;;;;4.63;2.13;;;14.90;80.30;;;15.18;39.95;100278.22;4894634;28;97863;-56
2021/05/06 09:36:18;;;;;;;2.90;1.40;;;15.00;77.70;;;15.15;41.44;100287.22;4895040;28;97571;-61
2021/05/06 09:38:56;;;;;;;5.77;2.33;;;14.90;79.70;;;15.15;40.14;100281.91;4897966;28;99142;-57
2021/05/06 09:41:31;;;;;;;5.50;2.23;;;14.90;79.20;;;15.13;39.47;100283.81;4888225;28;99667;-57
2021/05/06 09:44:17;;;;;;;4.70;2.20;;;15.00;76.80;;;15.22;41.53;100268.28;4893467;28;100020;-56
2021/05/06 09:46:56;;;;;;;6.37;2.70;;;14.90;79.70;;;15.13;38.70;100272.34;4868138;28;135714;-56
2021/05/06 09:49:23;;;;;;;4.13;2.30;;;14.90;76.30;;;15.00;39.51;100272.22;4889988;28;98900;-54
2021/05/06 09:51:52;;;;;;;6.70;2.50;;;14.70;77.60;;;14.87;41.54;100276.53;4901306;28;103967;-56
2021/05/06 09:54:25;;;;;;;4.07;2.60;;;14.50;78.70;;;14.83;40.00;100269.72;4895004;28;97644;-54
2021/05/06 09:57:01;;;;;;;2.60;2.30;;;14.50;77.50;;;14.96;42.25;100265.38;4888605;28;97419;-52
2021/05/06 09:59:37;;;;;;;2.10;1.43;;;14.60;80.10;;;15.20;41.95;100262.22;4911620;28;101337;-57
2021/05/06 10:02:17;;;;;;;4.20;2.50;;;14.90;80.90;;;15.41;41.73;100260.88;4894991;28;97387;-57
2021/05/06 10:04:45;;;;;;;3.13;2.30;;;15.20;79.90;;;15.34;39.10;100259.56;4897180;28;96995;-58
2021/05/06 10:07:25;;;;;;;2.70;2.23;;;15.20;76.10;;;15.30;37.90;100263.34;4911621;28;97750;-53
2021/05/06 10:10:03;;;;;;;3.00;2.00;;;15.10;74.70;;;15.38;41.34;100261.06;4902660;28;97754;-58
2021/05/06 10:12:31;;;;;;;4.40;2.10;;;15.00;78.70;;;15.39;40.80;100257.47;4888722;28;102384;-55
2021/05/06 10:14:58;;;;;;;2.90;1.60;;;15.20;76.70;;;15.62;40.10;100246.31;4896393;28;97476;-56
2021/05/06 10:17:27;;;;;;;2.43;1.70;;;15.40;77.20;;;15.78;40.36;100238.19;4895849;28;104738;-58
2021/05/06 10:19:54;;;;;;;3.03;1.27;;;15.60;75.60;;;15.66;35.92;100233.66;4899040;28;97278;-57
2021/05/06 10:22:27;;;;;;;3.03;1.70;;;15.60;70.40;;;15.72;37.06;100234.13;4898071;28;98271;-57
2021/05/06 10:24:54;;;;;;;4.27;1.90;;;15.60;70.10;;;15.80;38.02;100235.44;4899852;28;97236;-57
2021/05/06 10:27:24;;;;;;;3.13;1.73;;;15.70;70.80;;;15.91;39.80;100227.59;4882404;28;98978;-57
2021/05/06 10:29:57;;;;;;;4.43;1.43;;;15.70;74.70;;;15.96;39.17;100217.53;4906276;28;100132;-57
2021/05/06 10:32:29;;;;;;;3.43;1.30;;;15.90;73.20;;;15.95;35.08;100229.13;4896366;28;97703;-57
2021/05/06 10:34:59;;;;;;;3.03;1.10;;;15.90;69.70;;;16.03;39.31;100224.16;4878230;28;97128;-56
2021/05/06 10:37:34;;;;;;;1.20;0.70;;;15.90;73.60;;;16.11;38.01;100229.84;4905416;28;102955;-55
2021/05/06 10:40:01;;;;;;;4.50;1.23;;;15.90;75.30;;;16.17;38.86;100224.09;4896691;28;98769;-58
2021/05/06 10:42:26;;;;;;;3.30;1.00;;;16.10;72.80;;;16.07;36.32;100223.03;4901411;28;96902;-57
2021/05/06 10:44:57;;;;;;;1.83;1.00;;;16.00;67.90;;;16.11;34.91;100224.53;4895782;28;96909;-53
2021/05/06 10:47:38;;;;;;;2.53;1.40;;;16.00;69.40;;;16.20;37.21;100218.63;4898803;28;96807;-57
2021/05/06 10:50:13;;;;;;;2.30;1.30;;;16.10;70.60;;;16.29;39.06;100207.34;4895083;28;97861;-55
2021/05/06 10:52:42;;;;;;;1.47;1.33;;;16.20;73.90;;;16.43;37.63;100210.91;4916678;28;97435;-57
2021/05/06 10:55:10;;;;;;;2.93;1.27;;;16.40;71.80;;;16.45;36.90;100207.16;4893714;28;97365;-55
2021/05/06 10:57:36;;;;;;;3.20;1.30;;;16.50;69.20;;;16.42;37.42;100209.19;4883736;28;97675;-50
2021/05/06 11:00:24;;;;;;;3.30;1.20;;;16.40;70.90;;;16.54;37.30;100201.25;4893779;28;98053;-58
2021/05/06 11:02:57;;;;;;;1.47;0.90;;;16.50;70.90;;;16.63;38.18;100199.75;4899870;28;97208;-56
2021/05/06 11:05:28;;;;;;;3.60;1.33;;;16.70;71.90;;;16.61;32.54;100199.00;4898047;28;97342;-57
2021/05/06 11:08:06;;;;;;;2.80;1.30;;;16.70;61.60;;;16.48;31.38;100196.31;4915142;28;97100;-56
2021/05/06 11:10:48;;;;;;;3.57;1.53;;;16.50;61.30;;;16.40;31.02;100196.00;4907180;28;100850;-53
2021/05/06 11:13:16;;;;;;;4.23;1.77;;;16.30;59.60;;;16.20;33.59;100196.44;4893119;28;100147;-56
2021/05/06 11:15:42;;;;;;;4.83;1.77;;;16.10;63.10;;;16.20;38.34;100192.00;4879970;28;97211;-56
2021/05/06 11:18:39;;;;;;;3.47;1.40;;;16.00;72.40;;;16.27;33.76;100193.28;4908551;28;97950;-57
2021/05/06 11:21:05;;;;;;;2.90;1.33;;;16.20;70.20;;;16.28;37.25;100187.00;4885301;28;98034;-52
2021/05/06 11:23:34;;;;;;;4.20;1.80;;;16.10;67.70;;;16.15;33.86;100171.97;4894332;28;97289;-54
2021/05/06 11:26:14;;;;;;;6.00;1.83;;;16.00;63.50;;;16.12;36.38;100166.84;4890819;28;97499;-57
2021/05/06 11:28:42;;;;;;;1.43;1.13;;;15.90;66.30;;;16.22;36.44;100167.94;4914534;28;98762;-57
2021/05/06 11:31:07;;;;;;;3.67;1.40;;;16.00;66.80;;;15.92;32.28;100153.06;4883426;28;97408;-57
2021/05/06 11:33:33;;;;;;;1.83;1.13;;;15.80;60.90;;;16.02;38.46;100147.97;4912071;28;97739;-56
2021/05/06 11:36:20;;;;;;;3.03;1.40;;;15.80;70.80;;;16.11;35.76;100142.06;4904190;28;102975;-62
2021/05/06 11:38:54;;;;;;;4.03;1.70;;;16.00;67.00;;;16.22;38.67;100150.19;4912932;28;103147;-56
2021/05/06 11:41:29;;;;;;;1.27;1.00;;;16.10;69.50;;;16.28;36.42;100136.44;4885812;28;97549;-54
2021/05/06 11:43:59;;;;;;;2.43;1.37;;;16.20;69.10;;;16.43;37.50;100139.88;4913093;28;97260;-54
2021/05/06 11:46:30;;;;;;;4.97;1.60;;;16.40;70.10;;;16.41;36.94;100127.63;4901749;28;103809;-53
2021/05/06 11:49:03;;;;;;;1.77;1.43;;;16.30;64.80;;;16.44;32.64;100138.06;4897512;28;97112;-59
2021/05/06 11:51:48;;;;;;;3.07;1.73;;;16.40;64.20;;;16.42;37.47;100132.00;4901859;28;103881;-55
2021/05/06 11:54:25;;;;;;;1.83;1.00;;;16.30;67.90;;;16.55;38.10;100127.53;4909491;28;97470;-54
2021/05/06 11:57:00;;;;;;;3.33;1.60;;;16.40;70.60;;;16.69;37.94;100119.50;4897005;28;98138;-55
2021/05/06 11:59:29;;;;;;;2.83;1.50;;;16.60;71.60;;;16.68;35.71;100107.13;4890975;28;104793;-57
2021/05/06 12:01:59;;;;;;;2.20;1.47;;;16.60;64.30;;;16.51;31.78;100112.75;4880619;28;98427;-57
2021/05/06 12:04:34;;;;;;;2.27;1.47;;;16.40;60.90;;;16.47;34.70;100105.91;4877504;28;99538;-57
2021/05/06 12:07:16;;;;;;;3.37;1.43;;;16.20;63.30;;;16.33;33.21;100107.69;4888422;28;97053;-58
2021/05/06 12:09:42;;;;;;;2.70;1.60;;;16.10;64.60;;;16.30;34.99;100102.59;4913280;28;98315;-58
2021/05/06 12:12:08;;;;;;;2.47;1.73;;;16.00;66.70;;;16.23;36.56;100101.31;4892045;28;98290;-57
2021/05/06 12:14:39;;;;;;;2.27;1.70;;;16.00;68.00;;;16.11;34.98;100096.81;4878660;28;99450;-59
2021/05/06 12:17:07;;;;;;;4.00;1.67;;;15.90;63.00;;;16.13;31.92;100100.22;4912710;28;97351;-56
2021/05/06 12:19:41;;;;;;;2.80;1.70;;;16.00;62.50;;;15.99;35.64;100102.97;4910683;28;96798;-58
2021/05/06 12:22:08;;;;;;;4.00;2.50;;;15.70;63.30;;;15.91;35.20;100099.94;4884176;28;97504;-59
2021/05/06 12:24:41;;;;;;;3.37;1.67;;;15.70;64.40;;;16.06;36.28;100098.94;4896274;28;99292;-57
2021/05/06 12:27:24;;;;;;;3.27;1.90;;;15.90;68.70;;;16.13;32.86;100094.06;4901647;28;101593;-56
2021/05/06 12:29:58;;;;;;;4.83;1.83;;;16.10;64.00;;;16.16;36.88;100081.41;4905687;28;96842;-56
2021/05/06 12:32:30;;;;;;;5.07;1.40;;;16.00;66.10;;;16.13;37.53;100078.09;4891240;28;104905;-52
2021/05/06 12:34:57;;;;;;;2.47;1.40;;;16.00;65.00;;;16.02;34.13;100084.13;4893285;28;97896;-55
2021/05/06 12:37:28;;;;;;;2.60;1.40;;;15.90;61.90;;;16.06;32.87;100072.34;4884095;28;97123;-55
2021/05/06 12:39:55;;;;;;;2.73;1.80;;;15.90;63.00;;;16.02;33.85;100068.16;4902654;28;97460;-57
2021/05/06 12:42:35;;;;;;;3.10;2.13;;;15.90;64.50;;;15.90;33.78;100077.81;4911793;28;98397;-59
2021/05/06 12:45:10;;;;;;;2.33;1.73;;;15.70;63.50;;;15.68;35.28;100070.44;4906350;28;97251;-55
2021/05/06 12:47:49;;;;;;;4.47;2.33;;;15.50;62.70;;;15.62;33.35;100065.53;4892235;28;97195;-58
2021/05/06 12:50:20;;;;;;;4.03;2.30;;;15.40;64.10;;;15.59;36.18;100060.38;4917380;28;98625;-57
2021/05/06 12:52:48;;;;;;;3.80;1.83;;;15.40;66.60;;;15.62;35.89;100070.84;4890258;28;97534;-59
2021/05/06 12:55:24;;;;;;;2.33;1.73;;;15.40;66.30;;;15.69;37.78;100050.88;4887723;28;97390;-56
2021/05/06 12:58:14;;;;;;;3.27;1.77;;;15.50;67.80;;;15.90;37.35;100047.72;4877126;28;97274;-55
2021/05/06 13:00:57;;;;;;;2.67;1.77;;;15.80;68.00;;;15.94;37.66;100036.78;4896385;28;101762;-55
2021/05/06 13:03:31;;;;;;;4.43;2.20;;;15.80;66.30;;;16.05;35.38;100034.22;4905751;28;97529;-56
2021/05/06 13:06:09;;;;;;;2.43;1.53;;;15.90;67.40;;;16.27;36.36;100033.63;4911141;28;97650;-58
2021/05/06 13:08:38;;;;;;;3.53;1.80;;;16.20;68.60;;;16.45;37.29;100031.50;4888659;28;97278;-55
2021/05/06 13:11:07;;;;;;;3.23;1.90;;;16.50;69.50;;;16.57;33.54;100016.47;4891450;28;99728;-58
2021/05/06 13:13:38;;;;;;;2.07;1.77;;;16.60;63.10;;;16.70;36.76;100019.16;4878840;28;97197;-59
2021/05/06 13:16:07;;;;;;;3.17;2.00;;;16.70;69.70;;;16.67;32.17;100017.56;4893436;28;97342;-58
2021/05/06 13:18:33;;;;;;;3.53;1.80;;;16.70;61.50;;;16.76;35.00;100019.56;4908125;28;98809;-58
2021/05/06 13:20:59;;;;;;;3.73;1.70;;;16.80;64.50;;;16.87;36.81;100016.13;4874101;28;97805;-61
2021/05/06 13:23:30;;;;;;;2.53;1.50;;;16.90;69.90;;;16.92;33.42;100004.22;4904470;28;101551;-58
2021/05/06 13:26:46;;;;;;;3.03;1.77;;;16.90;61.60;;;16.73;31.73;100009.13;4895463;28;97377;-53
2021/05/06 13:29:18;;;;;;;3.50;1.70;;;16.70;60.70;;;16.63;35.19;100003.56;4902936;28;97603;-57
2021/05/06 13:31:47;;;;;;;1.67;0.80;;;16.40;60.80;;;16.82;37.16;100003.16;4898427;28;99266;-59
2021/05/06 13:34:22;;;;;;;2.23;1.60;;;16.70;70.90;;;16.95;35.70;100003.97;4890833;28;99908;-58
2021/05/06 13:37:02;;;;;;;2.23;1.67;;;16.90;63.50;;;16.98;35.55;100002.06;4882521;28;96923;-56
2021/05/06 13:39:28;;;;;;;5.57;2.20;;;16.90;62.70;;;17.01;36.10;99999.16;4891466;28;96986;-57
2021/05/06 13:41:54;;;;;;;2.67;1.87;;;17.00;65.50;;;17.03;36.48;99994.56;4886920;28;98922;-56
2021/05/06 13:44:24;;;;;;;6.17;2.67;;;17.00;68.40;;;16.96;34.46;99999.50;4888664;28;104014;-57
2021/05/06 13:46:56;;;;;;;4.27;2.20;;;16.90;64.10;;;16.92;32.30;99998.88;4894207;28;97764;-55
2021/05/06 13:49:26;;;;;;;4.57;1.73;;;16.90;62.90;;;16.83;32.14;99988.03;4891384;28;99217;-57
2021/05/06 13:51:54;;;;;;;1.77;1.60;;;16.70;59.70;;;16.71;33.72;99989.75;4893801;28;98596;-54
2021/05/06 13:54:22;;;;;;;4.23;2.27;;;16.50;60.00;;;16.58;33.25;99991.56;4905369;28;97082;-56
2021/05/06 13:56:48;;;;;;;2.10;1.60;;;16.30;59.70;;;16.56;33.20;99982.81;4895593;28;97426;-52